<?xml version="1.0" encoding="UTF-8" standalone="no" ?>
<gpx xmlns="http://www.topografix.com/GPX/1/1" xmlns:xsi="http://www.w3.org/2001/XMLSchema-instance" xsi:schemaLocation="http://www.topografix.com/GPX/1/1 http://www.topografix.com/GPX/1/1/gpx.xsd" version="1.1" creator="VisuGPX - https://www.visugpx.com">
  <metadata>
    <name>SAINT L</name>
  </metadata>
  <trk>
    <name><![CDATA[SAINT L]]></name>
    <trkseg>
      <trkpt lat="48.62023" lon="-3.23412">
        <ele>115.5</ele>
        <time>2016-10-04T12:23:03Z</time>
      </trkpt>
      <trkpt lat="48.62026" lon="-3.23402">
        <ele>113.09</ele>
        <time>2016-10-04T12:23:09Z</time>
      </trkpt>
      <trkpt lat="48.62035" lon="-3.23428">
        <ele>115.01</ele>
        <time>2016-10-04T12:23:23Z</time>
      </trkpt>
      <trkpt lat="48.62049" lon="-3.23469">
        <ele>116.46</ele>
        <time>2016-10-04T12:23:45Z</time>
      </trkpt>
      <trkpt lat="48.62053" lon="-3.23508">
        <ele>119.34</ele>
        <time>2016-10-04T12:24:05Z</time>
      </trkpt>
      <trkpt lat="48.62042" lon="-3.23536">
        <ele>122.71</ele>
        <time>2016-10-04T12:24:27Z</time>
      </trkpt>
      <trkpt lat="48.62034" lon="-3.23581">
        <ele>127.03</ele>
        <time>2016-10-04T12:24:46Z</time>
      </trkpt>
      <trkpt lat="48.62025" lon="-3.23619">
        <ele>129.92</ele>
        <time>2016-10-04T12:25:06Z</time>
      </trkpt>
      <trkpt lat="48.62021" lon="-3.23646">
        <ele>133.28</ele>
        <time>2016-10-04T12:25:24Z</time>
      </trkpt>
      <trkpt lat="48.62014" lon="-3.23677">
        <ele>136.16</ele>
        <time>2016-10-04T12:25:44Z</time>
      </trkpt>
      <trkpt lat="48.62007" lon="-3.23703">
        <ele>139.53</ele>
        <time>2016-10-04T12:26:01Z</time>
      </trkpt>
      <trkpt lat="48.62006" lon="-3.23718">
        <ele>138.57</ele>
        <time>2016-10-04T12:26:19Z</time>
      </trkpt>
      <trkpt lat="48.62001" lon="-3.23744">
        <ele>136.64</ele>
        <time>2016-10-04T12:26:39Z</time>
      </trkpt>
      <trkpt lat="48.61998" lon="-3.2377">
        <ele>135.2</ele>
        <time>2016-10-04T12:27:00Z</time>
      </trkpt>
      <trkpt lat="48.61995" lon="-3.23796">
        <ele>134.72</ele>
        <time>2016-10-04T12:27:16Z</time>
      </trkpt>
      <trkpt lat="48.61993" lon="-3.23816">
        <ele>135.2</ele>
        <time>2016-10-04T12:27:36Z</time>
      </trkpt>
      <trkpt lat="48.61991" lon="-3.23845">
        <ele>136.16</ele>
        <time>2016-10-04T12:27:55Z</time>
      </trkpt>
      <trkpt lat="48.61987" lon="-3.2388">
        <ele>137.61</ele>
        <time>2016-10-04T12:28:15Z</time>
      </trkpt>
      <trkpt lat="48.61985" lon="-3.23915">
        <ele>138.57</ele>
        <time>2016-10-04T12:28:33Z</time>
      </trkpt>
      <trkpt lat="48.61981" lon="-3.23943">
        <ele>140.49</ele>
        <time>2016-10-04T12:28:51Z</time>
      </trkpt>
      <trkpt lat="48.61977" lon="-3.23982">
        <ele>141.93</ele>
        <time>2016-10-04T12:29:12Z</time>
      </trkpt>
      <trkpt lat="48.61975" lon="-3.24019">
        <ele>145.3</ele>
        <time>2016-10-04T12:29:34Z</time>
      </trkpt>
      <trkpt lat="48.61969" lon="-3.2406">
        <ele>147.7</ele>
        <time>2016-10-04T12:29:55Z</time>
      </trkpt>
      <trkpt lat="48.61967" lon="-3.24102">
        <ele>151.06</ele>
        <time>2016-10-04T12:30:18Z</time>
      </trkpt>
      <trkpt lat="48.61966" lon="-3.24133">
        <ele>152.51</ele>
        <time>2016-10-04T12:30:35Z</time>
      </trkpt>
      <trkpt lat="48.61964" lon="-3.24166">
        <ele>153.47</ele>
        <time>2016-10-04T12:30:52Z</time>
      </trkpt>
      <trkpt lat="48.61964" lon="-3.24196">
        <ele>152.03</ele>
        <time>2016-10-04T12:31:10Z</time>
      </trkpt>
      <trkpt lat="48.61964" lon="-3.24203">
        <ele>152.03</ele>
        <time>2016-10-04T12:31:15Z</time>
      </trkpt>
      <trkpt lat="48.61965" lon="-3.24228">
        <ele>150.1</ele>
        <time>2016-10-04T12:31:35Z</time>
      </trkpt>
      <trkpt lat="48.61966" lon="-3.2425">
        <ele>149.62</ele>
        <time>2016-10-04T12:31:53Z</time>
      </trkpt>
      <trkpt lat="48.61969" lon="-3.24275">
        <ele>147.7</ele>
        <time>2016-10-04T12:32:14Z</time>
      </trkpt>
      <trkpt lat="48.61971" lon="-3.24303">
        <ele>145.78</ele>
        <time>2016-10-04T12:32:34Z</time>
      </trkpt>
      <trkpt lat="48.61975" lon="-3.24325">
        <ele>143.85</ele>
        <time>2016-10-04T12:32:53Z</time>
      </trkpt>
      <trkpt lat="48.61981" lon="-3.24352">
        <ele>143.37</ele>
        <time>2016-10-04T12:33:13Z</time>
      </trkpt>
      <trkpt lat="48.61982" lon="-3.24383">
        <ele>141.93</ele>
        <time>2016-10-04T12:33:32Z</time>
      </trkpt>
      <trkpt lat="48.6198" lon="-3.24412">
        <ele>141.93</ele>
        <time>2016-10-04T12:33:49Z</time>
      </trkpt>
      <trkpt lat="48.61974" lon="-3.24431">
        <ele>141.93</ele>
        <time>2016-10-04T12:34:05Z</time>
      </trkpt>
      <trkpt lat="48.61965" lon="-3.24458">
        <ele>144.34</ele>
        <time>2016-10-04T12:34:25Z</time>
      </trkpt>
      <trkpt lat="48.6196" lon="-3.24491">
        <ele>145.78</ele>
        <time>2016-10-04T12:34:44Z</time>
      </trkpt>
      <trkpt lat="48.61956" lon="-3.24505">
        <ele>144.34</ele>
        <time>2016-10-04T12:34:58Z</time>
      </trkpt>
      <trkpt lat="48.61952" lon="-3.24523">
        <ele>143.85</ele>
        <time>2016-10-04T12:35:15Z</time>
      </trkpt>
      <trkpt lat="48.61946" lon="-3.24544">
        <ele>142.89</ele>
        <time>2016-10-04T12:35:34Z</time>
      </trkpt>
      <trkpt lat="48.61939" lon="-3.24559">
        <ele>141.93</ele>
        <time>2016-10-04T12:35:52Z</time>
      </trkpt>
      <trkpt lat="48.61933" lon="-3.2458">
        <ele>141.45</ele>
        <time>2016-10-04T12:36:13Z</time>
      </trkpt>
      <trkpt lat="48.61923" lon="-3.24596">
        <ele>140.49</ele>
        <time>2016-10-04T12:36:32Z</time>
      </trkpt>
      <trkpt lat="48.61911" lon="-3.24619">
        <ele>139.53</ele>
        <time>2016-10-04T12:36:52Z</time>
      </trkpt>
      <trkpt lat="48.619" lon="-3.24633">
        <ele>139.05</ele>
        <time>2016-10-04T12:37:10Z</time>
      </trkpt>
      <trkpt lat="48.61895" lon="-3.24652">
        <ele>138.57</ele>
        <time>2016-10-04T12:37:26Z</time>
      </trkpt>
      <trkpt lat="48.61893" lon="-3.24669">
        <ele>138.57</ele>
        <time>2016-10-04T12:37:40Z</time>
      </trkpt>
      <trkpt lat="48.6189" lon="-3.24702">
        <ele>137.13</ele>
        <time>2016-10-04T12:38:00Z</time>
      </trkpt>
      <trkpt lat="48.61888" lon="-3.24712">
        <ele>135.68</ele>
        <time>2016-10-04T12:38:23Z</time>
      </trkpt>
      <trkpt lat="48.6189" lon="-3.24723">
        <ele>134.24</ele>
        <time>2016-10-04T12:38:42Z</time>
      </trkpt>
      <trkpt lat="48.61892" lon="-3.2475">
        <ele>133.28</ele>
        <time>2016-10-04T12:39:04Z</time>
      </trkpt>
      <trkpt lat="48.61884" lon="-3.24778">
        <ele>132.32</ele>
        <time>2016-10-04T12:39:23Z</time>
      </trkpt>
      <trkpt lat="48.61899" lon="-3.24783">
        <ele>130.4</ele>
        <time>2016-10-04T12:39:41Z</time>
      </trkpt>
      <trkpt lat="48.61917" lon="-3.24803">
        <ele>127.51</ele>
        <time>2016-10-04T12:40:03Z</time>
      </trkpt>
      <trkpt lat="48.6194" lon="-3.24788">
        <ele>128.47</ele>
        <time>2016-10-04T12:40:21Z</time>
      </trkpt>
      <trkpt lat="48.61941" lon="-3.24792">
        <ele>126.55</ele>
        <time>2016-10-04T12:40:40Z</time>
      </trkpt>
      <trkpt lat="48.61941" lon="-3.24798">
        <ele>125.59</ele>
        <time>2016-10-04T12:41:01Z</time>
      </trkpt>
      <trkpt lat="48.61937" lon="-3.24796">
        <ele>125.59</ele>
        <time>2016-10-04T12:41:25Z</time>
      </trkpt>
      <trkpt lat="48.61938" lon="-3.24797">
        <ele>124.63</ele>
        <time>2016-10-04T12:41:43Z</time>
      </trkpt>
      <trkpt lat="48.61944" lon="-3.248">
        <ele>124.15</ele>
        <time>2016-10-04T12:41:59Z</time>
      </trkpt>
      <trkpt lat="48.61953" lon="-3.24806">
        <ele>124.15</ele>
        <time>2016-10-04T12:42:22Z</time>
      </trkpt>
      <trkpt lat="48.6196" lon="-3.24819">
        <ele>126.07</ele>
        <time>2016-10-04T12:42:34Z</time>
      </trkpt>
      <trkpt lat="48.61979" lon="-3.24827">
        <ele>127.03</ele>
        <time>2016-10-04T12:42:54Z</time>
      </trkpt>
      <trkpt lat="48.61987" lon="-3.24836">
        <ele>125.59</ele>
        <time>2016-10-04T12:43:13Z</time>
      </trkpt>
      <trkpt lat="48.62001" lon="-3.2485">
        <ele>124.15</ele>
        <time>2016-10-04T12:43:36Z</time>
      </trkpt>
      <trkpt lat="48.6201" lon="-3.24844">
        <ele>124.15</ele>
        <time>2016-10-04T12:44:03Z</time>
      </trkpt>
      <trkpt lat="48.62024" lon="-3.24819">
        <ele>115.5</ele>
        <time>2016-10-04T12:44:26Z</time>
      </trkpt>
      <trkpt lat="48.62037" lon="-3.24775">
        <ele>95.79</ele>
        <time>2016-10-04T12:44:47Z</time>
      </trkpt>
      <trkpt lat="48.62053" lon="-3.24776">
        <ele>93.39</ele>
        <time>2016-10-04T12:45:11Z</time>
      </trkpt>
      <trkpt lat="48.62068" lon="-3.24784">
        <ele>92.9</ele>
        <time>2016-10-04T12:45:30Z</time>
      </trkpt>
      <trkpt lat="48.62087" lon="-3.24778">
        <ele>94.83</ele>
        <time>2016-10-04T12:45:48Z</time>
      </trkpt>
      <trkpt lat="48.62107" lon="-3.24789">
        <ele>97.23</ele>
        <time>2016-10-04T12:46:09Z</time>
      </trkpt>
      <trkpt lat="48.62108" lon="-3.24812">
        <ele>93.39</ele>
        <time>2016-10-04T12:46:28Z</time>
      </trkpt>
      <trkpt lat="48.62114" lon="-3.24814">
        <ele>92.9</ele>
        <time>2016-10-04T12:46:49Z</time>
      </trkpt>
      <trkpt lat="48.6212" lon="-3.24818">
        <ele>92.9</ele>
        <time>2016-10-04T12:47:10Z</time>
      </trkpt>
      <trkpt lat="48.62137" lon="-3.24812">
        <ele>90.98</ele>
        <time>2016-10-04T12:47:24Z</time>
      </trkpt>
      <trkpt lat="48.62142" lon="-3.24821">
        <ele>90.98</ele>
        <time>2016-10-04T12:47:40Z</time>
      </trkpt>
      <trkpt lat="48.62162" lon="-3.24822">
        <ele>87.14</ele>
        <time>2016-10-04T12:48:00Z</time>
      </trkpt>
      <trkpt lat="48.62189" lon="-3.24801">
        <ele>84.73</ele>
        <time>2016-10-04T12:48:20Z</time>
      </trkpt>
      <trkpt lat="48.6219" lon="-3.248">
        <ele>84.73</ele>
        <time>2016-10-04T12:48:40Z</time>
      </trkpt>
      <trkpt lat="48.62206" lon="-3.24789">
        <ele>83.77</ele>
        <time>2016-10-04T12:48:59Z</time>
      </trkpt>
      <trkpt lat="48.62225" lon="-3.24778">
        <ele>78.97</ele>
        <time>2016-10-04T12:49:20Z</time>
      </trkpt>
      <trkpt lat="48.62243" lon="-3.24791">
        <ele>77.04</ele>
        <time>2016-10-04T12:49:37Z</time>
      </trkpt>
      <trkpt lat="48.62256" lon="-3.2479">
        <ele>78</ele>
        <time>2016-10-04T12:49:57Z</time>
      </trkpt>
      <trkpt lat="48.62272" lon="-3.24785">
        <ele>78.48</ele>
        <time>2016-10-04T12:50:15Z</time>
      </trkpt>
      <trkpt lat="48.62281" lon="-3.24779">
        <ele>78.97</ele>
        <time>2016-10-04T12:50:38Z</time>
      </trkpt>
      <trkpt lat="48.62292" lon="-3.2477">
        <ele>76.56</ele>
        <time>2016-10-04T12:51:02Z</time>
      </trkpt>
      <trkpt lat="48.62306" lon="-3.24768">
        <ele>76.56</ele>
        <time>2016-10-04T12:51:20Z</time>
      </trkpt>
      <trkpt lat="48.6232" lon="-3.24775">
        <ele>75.12</ele>
        <time>2016-10-04T12:51:39Z</time>
      </trkpt>
      <trkpt lat="48.62348" lon="-3.24783">
        <ele>77.04</ele>
        <time>2016-10-04T12:51:57Z</time>
      </trkpt>
      <trkpt lat="48.62344" lon="-3.24796">
        <ele>78</ele>
        <time>2016-10-04T12:52:35Z</time>
      </trkpt>
      <trkpt lat="48.62357" lon="-3.24804">
        <ele>79.45</ele>
        <time>2016-10-04T12:52:50Z</time>
      </trkpt>
      <trkpt lat="48.62369" lon="-3.24819">
        <ele>78.48</ele>
        <time>2016-10-04T12:53:07Z</time>
      </trkpt>
      <trkpt lat="48.62383" lon="-3.24825">
        <ele>78.48</ele>
        <time>2016-10-04T12:53:25Z</time>
      </trkpt>
      <trkpt lat="48.62406" lon="-3.24831">
        <ele>77.52</ele>
        <time>2016-10-04T12:53:44Z</time>
      </trkpt>
      <trkpt lat="48.6242" lon="-3.24834">
        <ele>76.56</ele>
        <time>2016-10-04T12:54:04Z</time>
      </trkpt>
      <trkpt lat="48.6245" lon="-3.2485">
        <ele>75.12</ele>
        <time>2016-10-04T12:54:24Z</time>
      </trkpt>
      <trkpt lat="48.62466" lon="-3.24859">
        <ele>76.08</ele>
        <time>2016-10-04T12:54:45Z</time>
      </trkpt>
      <trkpt lat="48.62489" lon="-3.2486">
        <ele>77.52</ele>
        <time>2016-10-04T12:55:08Z</time>
      </trkpt>
      <trkpt lat="48.62514" lon="-3.24842">
        <ele>73.68</ele>
        <time>2016-10-04T12:55:28Z</time>
      </trkpt>
      <trkpt lat="48.62536" lon="-3.24835">
        <ele>72.72</ele>
        <time>2016-10-04T12:55:49Z</time>
      </trkpt>
      <trkpt lat="48.62554" lon="-3.24832">
        <ele>73.68</ele>
        <time>2016-10-04T12:56:10Z</time>
      </trkpt>
      <trkpt lat="48.6258" lon="-3.24809">
        <ele>79.45</ele>
        <time>2016-10-04T12:56:31Z</time>
      </trkpt>
      <trkpt lat="48.62599" lon="-3.24789">
        <ele>82.33</ele>
        <time>2016-10-04T12:56:52Z</time>
      </trkpt>
      <trkpt lat="48.62605" lon="-3.24775">
        <ele>85.21</ele>
        <time>2016-10-04T12:57:11Z</time>
      </trkpt>
      <trkpt lat="48.62625" lon="-3.24765">
        <ele>84.25</ele>
        <time>2016-10-04T12:57:31Z</time>
      </trkpt>
      <trkpt lat="48.62642" lon="-3.24764">
        <ele>81.85</ele>
        <time>2016-10-04T12:57:51Z</time>
      </trkpt>
      <trkpt lat="48.62666" lon="-3.24753">
        <ele>82.33</ele>
        <time>2016-10-04T12:58:11Z</time>
      </trkpt>
      <trkpt lat="48.62681" lon="-3.24745">
        <ele>82.33</ele>
        <time>2016-10-04T12:58:33Z</time>
      </trkpt>
      <trkpt lat="48.62698" lon="-3.2475">
        <ele>84.25</ele>
        <time>2016-10-04T12:58:53Z</time>
      </trkpt>
      <trkpt lat="48.62724" lon="-3.24745">
        <ele>85.69</ele>
        <time>2016-10-04T12:59:12Z</time>
      </trkpt>
      <trkpt lat="48.62739" lon="-3.24749">
        <ele>83.29</ele>
        <time>2016-10-04T12:59:33Z</time>
      </trkpt>
      <trkpt lat="48.62761" lon="-3.24759">
        <ele>80.41</ele>
        <time>2016-10-04T12:59:52Z</time>
      </trkpt>
      <trkpt lat="48.62772" lon="-3.24767">
        <ele>80.89</ele>
        <time>2016-10-04T13:00:13Z</time>
      </trkpt>
      <trkpt lat="48.62787" lon="-3.24786">
        <ele>79.45</ele>
        <time>2016-10-04T13:00:35Z</time>
      </trkpt>
      <trkpt lat="48.62816" lon="-3.24777">
        <ele>77.52</ele>
        <time>2016-10-04T13:00:57Z</time>
      </trkpt>
      <trkpt lat="48.62825" lon="-3.24775">
        <ele>76.56</ele>
        <time>2016-10-04T13:01:18Z</time>
      </trkpt>
      <trkpt lat="48.62841" lon="-3.24776">
        <ele>75.12</ele>
        <time>2016-10-04T13:01:38Z</time>
      </trkpt>
      <trkpt lat="48.62847" lon="-3.24757">
        <ele>73.2</ele>
        <time>2016-10-04T13:02:01Z</time>
      </trkpt>
      <trkpt lat="48.62856" lon="-3.24742">
        <ele>74.16</ele>
        <time>2016-10-04T13:02:20Z</time>
      </trkpt>
      <trkpt lat="48.62859" lon="-3.24744">
        <ele>74.16</ele>
        <time>2016-10-04T13:02:36Z</time>
      </trkpt>
      <trkpt lat="48.62877" lon="-3.24757">
        <ele>74.16</ele>
        <time>2016-10-04T13:02:54Z</time>
      </trkpt>
      <trkpt lat="48.62879" lon="-3.2476">
        <ele>74.16</ele>
        <time>2016-10-04T13:03:12Z</time>
      </trkpt>
      <trkpt lat="48.62891" lon="-3.2474">
        <ele>74.64</ele>
        <time>2016-10-04T13:03:33Z</time>
      </trkpt>
      <trkpt lat="48.62916" lon="-3.24736">
        <ele>84.73</ele>
        <time>2016-10-04T13:03:55Z</time>
      </trkpt>
      <trkpt lat="48.62918" lon="-3.24737">
        <ele>85.21</ele>
        <time>2016-10-04T13:04:23Z</time>
      </trkpt>
      <trkpt lat="48.62919" lon="-3.2474">
        <ele>85.21</ele>
        <time>2016-10-04T13:04:48Z</time>
      </trkpt>
      <trkpt lat="48.62922" lon="-3.24737">
        <ele>85.21</ele>
        <time>2016-10-04T13:05:05Z</time>
      </trkpt>
      <trkpt lat="48.62934" lon="-3.24728">
        <ele>83.29</ele>
        <time>2016-10-04T13:05:28Z</time>
      </trkpt>
      <trkpt lat="48.62946" lon="-3.24722">
        <ele>83.29</ele>
        <time>2016-10-04T13:05:47Z</time>
      </trkpt>
      <trkpt lat="48.62962" lon="-3.24705">
        <ele>78</ele>
        <time>2016-10-04T13:06:06Z</time>
      </trkpt>
      <trkpt lat="48.6297" lon="-3.24696">
        <ele>76.56</ele>
        <time>2016-10-04T13:06:25Z</time>
      </trkpt>
      <trkpt lat="48.62998" lon="-3.24682">
        <ele>72.24</ele>
        <time>2016-10-04T13:06:42Z</time>
      </trkpt>
      <trkpt lat="48.63024" lon="-3.24677">
        <ele>69.35</ele>
        <time>2016-10-04T13:07:07Z</time>
      </trkpt>
      <trkpt lat="48.63037" lon="-3.24693">
        <ele>67.91</ele>
        <time>2016-10-04T13:07:23Z</time>
      </trkpt>
      <trkpt lat="48.63043" lon="-3.24713">
        <ele>71.27</ele>
        <time>2016-10-04T13:07:43Z</time>
      </trkpt>
      <trkpt lat="48.63046" lon="-3.24714">
        <ele>67.91</ele>
        <time>2016-10-04T13:08:01Z</time>
      </trkpt>
      <trkpt lat="48.63057" lon="-3.24749">
        <ele>68.87</ele>
        <time>2016-10-04T13:08:24Z</time>
      </trkpt>
      <trkpt lat="48.63061" lon="-3.24776">
        <ele>69.35</ele>
        <time>2016-10-04T13:08:49Z</time>
      </trkpt>
      <trkpt lat="48.6306" lon="-3.24797">
        <ele>68.87</ele>
        <time>2016-10-04T13:09:09Z</time>
      </trkpt>
      <trkpt lat="48.63066" lon="-3.24826">
        <ele>67.43</ele>
        <time>2016-10-04T13:09:31Z</time>
      </trkpt>
      <trkpt lat="48.63064" lon="-3.24839">
        <ele>67.43</ele>
        <time>2016-10-04T13:09:52Z</time>
      </trkpt>
      <trkpt lat="48.63071" lon="-3.24857">
        <ele>65.51</ele>
        <time>2016-10-04T13:10:08Z</time>
      </trkpt>
      <trkpt lat="48.63074" lon="-3.24865">
        <ele>61.66</ele>
        <time>2016-10-04T13:10:28Z</time>
      </trkpt>
      <trkpt lat="48.6308" lon="-3.24888">
        <ele>57.82</ele>
        <time>2016-10-04T13:10:50Z</time>
      </trkpt>
      <trkpt lat="48.63091" lon="-3.24917">
        <ele>52.53</ele>
        <time>2016-10-04T13:11:13Z</time>
      </trkpt>
      <trkpt lat="48.63102" lon="-3.24937">
        <ele>46.76</ele>
        <time>2016-10-04T13:11:30Z</time>
      </trkpt>
      <trkpt lat="48.63111" lon="-3.24937">
        <ele>41.47</ele>
        <time>2016-10-04T13:11:53Z</time>
      </trkpt>
      <trkpt lat="48.63114" lon="-3.24937">
        <ele>40.51</ele>
        <time>2016-10-04T13:12:14Z</time>
      </trkpt>
      <trkpt lat="48.63151" lon="-3.2492">
        <ele>44.36</ele>
        <time>2016-10-04T13:12:34Z</time>
      </trkpt>
      <trkpt lat="48.63172" lon="-3.24914">
        <ele>47.72</ele>
        <time>2016-10-04T13:12:54Z</time>
      </trkpt>
      <trkpt lat="48.6318" lon="-3.24907">
        <ele>48.2</ele>
        <time>2016-10-04T13:13:14Z</time>
      </trkpt>
      <trkpt lat="48.63193" lon="-3.24901">
        <ele>50.13</ele>
        <time>2016-10-04T13:13:40Z</time>
      </trkpt>
      <trkpt lat="48.63193" lon="-3.2485">
        <ele>54.93</ele>
        <time>2016-10-04T13:14:02Z</time>
      </trkpt>
      <trkpt lat="48.63185" lon="-3.2482">
        <ele>56.37</ele>
        <time>2016-10-04T13:14:23Z</time>
      </trkpt>
      <trkpt lat="48.63188" lon="-3.24807">
        <ele>57.82</ele>
        <time>2016-10-04T13:14:44Z</time>
      </trkpt>
      <trkpt lat="48.6319" lon="-3.24806">
        <ele>58.3</ele>
        <time>2016-10-04T13:15:04Z</time>
      </trkpt>
      <trkpt lat="48.63201" lon="-3.24814">
        <ele>56.37</ele>
        <time>2016-10-04T13:15:29Z</time>
      </trkpt>
      <trkpt lat="48.63222" lon="-3.24835">
        <ele>55.41</ele>
        <time>2016-10-04T13:15:48Z</time>
      </trkpt>
      <trkpt lat="48.63234" lon="-3.24845">
        <ele>55.41</ele>
        <time>2016-10-04T13:16:06Z</time>
      </trkpt>
      <trkpt lat="48.6325" lon="-3.24848">
        <ele>55.41</ele>
        <time>2016-10-04T13:16:25Z</time>
      </trkpt>
      <trkpt lat="48.63273" lon="-3.24857">
        <ele>55.89</ele>
        <time>2016-10-04T13:16:45Z</time>
      </trkpt>
      <trkpt lat="48.63283" lon="-3.24864">
        <ele>55.41</ele>
        <time>2016-10-04T13:17:03Z</time>
      </trkpt>
      <trkpt lat="48.63295" lon="-3.24862">
        <ele>54.45</ele>
        <time>2016-10-04T13:17:21Z</time>
      </trkpt>
      <trkpt lat="48.63303" lon="-3.24865">
        <ele>53.97</ele>
        <time>2016-10-04T13:17:40Z</time>
      </trkpt>
      <trkpt lat="48.63324" lon="-3.24872">
        <ele>53.01</ele>
        <time>2016-10-04T13:18:01Z</time>
      </trkpt>
      <trkpt lat="48.63331" lon="-3.24876">
        <ele>53.01</ele>
        <time>2016-10-04T13:18:20Z</time>
      </trkpt>
      <trkpt lat="48.63356" lon="-3.2489">
        <ele>53.01</ele>
        <time>2016-10-04T13:18:38Z</time>
      </trkpt>
      <trkpt lat="48.63364" lon="-3.24902">
        <ele>54.45</ele>
        <time>2016-10-04T13:18:56Z</time>
      </trkpt>
      <trkpt lat="48.63367" lon="-3.24908">
        <ele>57.82</ele>
        <time>2016-10-04T13:19:18Z</time>
      </trkpt>
      <trkpt lat="48.63377" lon="-3.24911">
        <ele>63.58</ele>
        <time>2016-10-04T13:19:38Z</time>
      </trkpt>
      <trkpt lat="48.63378" lon="-3.24915">
        <ele>65.51</ele>
        <time>2016-10-04T13:19:59Z</time>
      </trkpt>
      <trkpt lat="48.63379" lon="-3.24919">
        <ele>66.47</ele>
        <time>2016-10-04T13:20:34Z</time>
      </trkpt>
      <trkpt lat="48.63387" lon="-3.2492">
        <ele>69.83</ele>
        <time>2016-10-04T13:20:55Z</time>
      </trkpt>
      <trkpt lat="48.63392" lon="-3.24924">
        <ele>70.31</ele>
        <time>2016-10-04T13:21:12Z</time>
      </trkpt>
      <trkpt lat="48.63391" lon="-3.24924">
        <ele>70.31</ele>
        <time>2016-10-04T13:21:34Z</time>
      </trkpt>
      <trkpt lat="48.63392" lon="-3.24923">
        <ele>70.31</ele>
        <time>2016-10-04T13:22:00Z</time>
      </trkpt>
      <trkpt lat="48.63391" lon="-3.24924">
        <ele>70.79</ele>
        <time>2016-10-04T13:22:31Z</time>
      </trkpt>
      <trkpt lat="48.63391" lon="-3.24923">
        <ele>71.27</ele>
        <time>2016-10-04T13:22:59Z</time>
      </trkpt>
      <trkpt lat="48.63392" lon="-3.24917">
        <ele>67.91</ele>
        <time>2016-10-04T13:23:23Z</time>
      </trkpt>
      <trkpt lat="48.63393" lon="-3.2492">
        <ele>68.39</ele>
        <time>2016-10-04T13:23:51Z</time>
      </trkpt>
      <trkpt lat="48.63392" lon="-3.24922">
        <ele>68.39</ele>
        <time>2016-10-04T13:24:16Z</time>
      </trkpt>
      <trkpt lat="48.63391" lon="-3.24923">
        <ele>68.39</ele>
        <time>2016-10-04T13:24:41Z</time>
      </trkpt>
      <trkpt lat="48.63391" lon="-3.24926">
        <ele>67.91</ele>
        <time>2016-10-04T13:25:11Z</time>
      </trkpt>
      <trkpt lat="48.63391" lon="-3.24926">
        <ele>68.39</ele>
        <time>2016-10-04T13:25:39Z</time>
      </trkpt>
      <trkpt lat="48.63392" lon="-3.24923">
        <ele>73.2</ele>
        <time>2016-10-04T13:25:55Z</time>
      </trkpt>
      <trkpt lat="48.6339" lon="-3.24923">
        <ele>71.76</ele>
        <time>2016-10-04T13:26:10Z</time>
      </trkpt>
      <trkpt lat="48.6339" lon="-3.24922">
        <ele>71.76</ele>
        <time>2016-10-04T13:26:37Z</time>
      </trkpt>
      <trkpt lat="48.63389" lon="-3.24921">
        <ele>71.27</ele>
        <time>2016-10-04T13:26:53Z</time>
      </trkpt>
      <trkpt lat="48.63387" lon="-3.24917">
        <ele>70.31</ele>
        <time>2016-10-04T13:27:09Z</time>
      </trkpt>
      <trkpt lat="48.63388" lon="-3.24919">
        <ele>70.31</ele>
        <time>2016-10-04T13:27:26Z</time>
      </trkpt>
      <trkpt lat="48.63386" lon="-3.24923">
        <ele>70.79</ele>
        <time>2016-10-04T13:27:55Z</time>
      </trkpt>
      <trkpt lat="48.63396" lon="-3.24937">
        <ele>70.79</ele>
        <time>2016-10-04T13:28:07Z</time>
      </trkpt>
      <trkpt lat="48.63398" lon="-3.24955">
        <ele>69.83</ele>
        <time>2016-10-04T13:28:22Z</time>
      </trkpt>
      <trkpt lat="48.63399" lon="-3.24965">
        <ele>68.87</ele>
        <time>2016-10-04T13:28:40Z</time>
      </trkpt>
      <trkpt lat="48.63395" lon="-3.24992">
        <ele>71.27</ele>
        <time>2016-10-04T13:29:01Z</time>
      </trkpt>
      <trkpt lat="48.63396" lon="-3.25006">
        <ele>69.83</ele>
        <time>2016-10-04T13:29:24Z</time>
      </trkpt>
      <trkpt lat="48.63381" lon="-3.25001">
        <ele>65.51</ele>
        <time>2016-10-04T13:29:45Z</time>
      </trkpt>
      <trkpt lat="48.63378" lon="-3.25002">
        <ele>65.03</ele>
        <time>2016-10-04T13:29:47Z</time>
      </trkpt>
      <trkpt lat="48.6336" lon="-3.25012">
        <ele>60.7</ele>
        <time>2016-10-04T13:30:08Z</time>
      </trkpt>
      <trkpt lat="48.63331" lon="-3.25038">
        <ele>64.55</ele>
        <time>2016-10-04T13:30:28Z</time>
      </trkpt>
      <trkpt lat="48.63327" lon="-3.25052">
        <ele>68.87</ele>
        <time>2016-10-04T13:30:48Z</time>
      </trkpt>
      <trkpt lat="48.63327" lon="-3.25065">
        <ele>73.68</ele>
        <time>2016-10-04T13:31:10Z</time>
      </trkpt>
      <trkpt lat="48.63317" lon="-3.25083">
        <ele>74.64</ele>
        <time>2016-10-04T13:31:29Z</time>
      </trkpt>
      <trkpt lat="48.6331" lon="-3.25095">
        <ele>73.2</ele>
        <time>2016-10-04T13:31:50Z</time>
      </trkpt>
      <trkpt lat="48.63293" lon="-3.25129">
        <ele>73.68</ele>
        <time>2016-10-04T13:32:08Z</time>
      </trkpt>
      <trkpt lat="48.63284" lon="-3.25148">
        <ele>73.68</ele>
        <time>2016-10-04T13:32:25Z</time>
      </trkpt>
      <trkpt lat="48.63283" lon="-3.2515">
        <ele>74.16</ele>
        <time>2016-10-04T13:32:40Z</time>
      </trkpt>
      <trkpt lat="48.63284" lon="-3.25152">
        <ele>75.6</ele>
        <time>2016-10-04T13:33:08Z</time>
      </trkpt>
      <trkpt lat="48.63281" lon="-3.25155">
        <ele>75.12</ele>
        <time>2016-10-04T13:33:31Z</time>
      </trkpt>
      <trkpt lat="48.63275" lon="-3.25157">
        <ele>75.6</ele>
        <time>2016-10-04T13:33:47Z</time>
      </trkpt>
      <trkpt lat="48.63268" lon="-3.25163">
        <ele>74.16</ele>
        <time>2016-10-04T13:34:06Z</time>
      </trkpt>
      <trkpt lat="48.63257" lon="-3.25181">
        <ele>73.2</ele>
        <time>2016-10-04T13:34:24Z</time>
      </trkpt>
      <trkpt lat="48.6324" lon="-3.25193">
        <ele>70.79</ele>
        <time>2016-10-04T13:34:42Z</time>
      </trkpt>
      <trkpt lat="48.6322" lon="-3.25203">
        <ele>70.79</ele>
        <time>2016-10-04T13:35:02Z</time>
      </trkpt>
      <trkpt lat="48.63207" lon="-3.25205">
        <ele>71.27</ele>
        <time>2016-10-04T13:35:17Z</time>
      </trkpt>
      <trkpt lat="48.63204" lon="-3.25205">
        <ele>71.27</ele>
        <time>2016-10-04T13:35:19Z</time>
      </trkpt>
      <trkpt lat="48.63188" lon="-3.25202">
        <ele>66.47</ele>
        <time>2016-10-04T13:35:39Z</time>
      </trkpt>
      <trkpt lat="48.63174" lon="-3.25199">
        <ele>65.51</ele>
        <time>2016-10-04T13:35:55Z</time>
      </trkpt>
      <trkpt lat="48.63169" lon="-3.25196">
        <ele>64.55</ele>
        <time>2016-10-04T13:36:02Z</time>
      </trkpt>
      <trkpt lat="48.63158" lon="-3.25196">
        <ele>59.74</ele>
        <time>2016-10-04T13:36:20Z</time>
      </trkpt>
      <trkpt lat="48.63142" lon="-3.2518">
        <ele>54.93</ele>
        <time>2016-10-04T13:36:40Z</time>
      </trkpt>
      <trkpt lat="48.63122" lon="-3.25168">
        <ele>53.01</ele>
        <time>2016-10-04T13:37:03Z</time>
      </trkpt>
      <trkpt lat="48.63109" lon="-3.25161">
        <ele>53.97</ele>
        <time>2016-10-04T13:37:22Z</time>
      </trkpt>
      <trkpt lat="48.63093" lon="-3.25149">
        <ele>47.24</ele>
        <time>2016-10-04T13:37:41Z</time>
      </trkpt>
      <trkpt lat="48.63078" lon="-3.2514">
        <ele>45.32</ele>
        <time>2016-10-04T13:37:54Z</time>
      </trkpt>
      <trkpt lat="48.6306" lon="-3.25128">
        <ele>48.2</ele>
        <time>2016-10-04T13:38:11Z</time>
      </trkpt>
      <trkpt lat="48.63049" lon="-3.25126">
        <ele>49.65</ele>
        <time>2016-10-04T13:38:30Z</time>
      </trkpt>
      <trkpt lat="48.6304" lon="-3.25131">
        <ele>53.01</ele>
        <time>2016-10-04T13:38:48Z</time>
      </trkpt>
      <trkpt lat="48.63018" lon="-3.25148">
        <ele>54.93</ele>
        <time>2016-10-04T13:39:05Z</time>
      </trkpt>
      <trkpt lat="48.63015" lon="-3.25152">
        <ele>54.93</ele>
        <time>2016-10-04T13:39:28Z</time>
      </trkpt>
      <trkpt lat="48.63002" lon="-3.25167">
        <ele>56.37</ele>
        <time>2016-10-04T13:39:44Z</time>
      </trkpt>
      <trkpt lat="48.62996" lon="-3.25165">
        <ele>64.55</ele>
        <time>2016-10-04T13:40:05Z</time>
      </trkpt>
      <trkpt lat="48.62996" lon="-3.2516">
        <ele>71.27</ele>
        <time>2016-10-04T13:40:25Z</time>
      </trkpt>
      <trkpt lat="48.62981" lon="-3.25166">
        <ele>77.52</ele>
        <time>2016-10-04T13:40:48Z</time>
      </trkpt>
      <trkpt lat="48.6297" lon="-3.2517">
        <ele>78</ele>
        <time>2016-10-04T13:41:10Z</time>
      </trkpt>
      <trkpt lat="48.62967" lon="-3.25178">
        <ele>76.56</ele>
        <time>2016-10-04T13:41:35Z</time>
      </trkpt>
      <trkpt lat="48.62966" lon="-3.25176">
        <ele>76.56</ele>
        <time>2016-10-04T13:41:58Z</time>
      </trkpt>
      <trkpt lat="48.62966" lon="-3.25171">
        <ele>75.6</ele>
        <time>2016-10-04T13:42:18Z</time>
      </trkpt>
      <trkpt lat="48.62963" lon="-3.2515">
        <ele>77.04</ele>
        <time>2016-10-04T13:42:40Z</time>
      </trkpt>
      <trkpt lat="48.62941" lon="-3.25129">
        <ele>81.85</ele>
        <time>2016-10-04T13:43:01Z</time>
      </trkpt>
      <trkpt lat="48.6292" lon="-3.25119">
        <ele>86.66</ele>
        <time>2016-10-04T13:43:23Z</time>
      </trkpt>
      <trkpt lat="48.62913" lon="-3.25103">
        <ele>87.14</ele>
        <time>2016-10-04T13:43:41Z</time>
      </trkpt>
      <trkpt lat="48.62904" lon="-3.25075">
        <ele>89.54</ele>
        <time>2016-10-04T13:44:03Z</time>
      </trkpt>
      <trkpt lat="48.62897" lon="-3.25071">
        <ele>91.46</ele>
        <time>2016-10-04T13:44:22Z</time>
      </trkpt>
      <trkpt lat="48.62885" lon="-3.25041">
        <ele>96.27</ele>
        <time>2016-10-04T13:44:44Z</time>
      </trkpt>
      <trkpt lat="48.62883" lon="-3.25028">
        <ele>95.31</ele>
        <time>2016-10-04T13:45:07Z</time>
      </trkpt>
      <trkpt lat="48.62884" lon="-3.24982">
        <ele>95.79</ele>
        <time>2016-10-04T13:45:30Z</time>
      </trkpt>
      <trkpt lat="48.62886" lon="-3.24967">
        <ele>93.87</ele>
        <time>2016-10-04T13:45:49Z</time>
      </trkpt>
      <trkpt lat="48.62869" lon="-3.24954">
        <ele>93.39</ele>
        <time>2016-10-04T13:46:10Z</time>
      </trkpt>
      <trkpt lat="48.62854" lon="-3.2495">
        <ele>90.98</ele>
        <time>2016-10-04T13:46:31Z</time>
      </trkpt>
      <trkpt lat="48.62845" lon="-3.24946">
        <ele>89.54</ele>
        <time>2016-10-04T13:46:53Z</time>
      </trkpt>
      <trkpt lat="48.6283" lon="-3.24924">
        <ele>91.94</ele>
        <time>2016-10-04T13:47:15Z</time>
      </trkpt>
      <trkpt lat="48.62817" lon="-3.24926">
        <ele>91.94</ele>
        <time>2016-10-04T13:47:35Z</time>
      </trkpt>
      <trkpt lat="48.62796" lon="-3.2493">
        <ele>93.39</ele>
        <time>2016-10-04T13:47:53Z</time>
      </trkpt>
      <trkpt lat="48.62784" lon="-3.24936">
        <ele>93.39</ele>
        <time>2016-10-04T13:48:14Z</time>
      </trkpt>
      <trkpt lat="48.62764" lon="-3.24934">
        <ele>92.42</ele>
        <time>2016-10-04T13:48:33Z</time>
      </trkpt>
      <trkpt lat="48.62735" lon="-3.24929">
        <ele>95.79</ele>
        <time>2016-10-04T13:48:55Z</time>
      </trkpt>
      <trkpt lat="48.62729" lon="-3.24929">
        <ele>95.79</ele>
        <time>2016-10-04T13:49:15Z</time>
      </trkpt>
      <trkpt lat="48.62728" lon="-3.24938">
        <ele>94.83</ele>
        <time>2016-10-04T13:49:36Z</time>
      </trkpt>
      <trkpt lat="48.62714" lon="-3.24938">
        <ele>96.27</ele>
        <time>2016-10-04T13:49:57Z</time>
      </trkpt>
      <trkpt lat="48.62697" lon="-3.24927">
        <ele>96.27</ele>
        <time>2016-10-04T13:50:17Z</time>
      </trkpt>
      <trkpt lat="48.62673" lon="-3.24924">
        <ele>94.83</ele>
        <time>2016-10-04T13:50:36Z</time>
      </trkpt>
      <trkpt lat="48.62655" lon="-3.24928">
        <ele>90.98</ele>
        <time>2016-10-04T13:50:58Z</time>
      </trkpt>
      <trkpt lat="48.62641" lon="-3.24934">
        <ele>90.02</ele>
        <time>2016-10-04T13:51:21Z</time>
      </trkpt>
      <trkpt lat="48.62632" lon="-3.24909">
        <ele>84.73</ele>
        <time>2016-10-04T13:51:41Z</time>
      </trkpt>
      <trkpt lat="48.62618" lon="-3.24907">
        <ele>81.37</ele>
        <time>2016-10-04T13:52:00Z</time>
      </trkpt>
      <trkpt lat="48.62602" lon="-3.24907">
        <ele>78.48</ele>
        <time>2016-10-04T13:52:20Z</time>
      </trkpt>
      <trkpt lat="48.62588" lon="-3.24923">
        <ele>77.52</ele>
        <time>2016-10-04T13:52:41Z</time>
      </trkpt>
      <trkpt lat="48.62586" lon="-3.24924">
        <ele>78</ele>
        <time>2016-10-04T13:53:04Z</time>
      </trkpt>
      <trkpt lat="48.62583" lon="-3.24939">
        <ele>75.12</ele>
        <time>2016-10-04T13:53:24Z</time>
      </trkpt>
      <trkpt lat="48.62584" lon="-3.24937">
        <ele>74.64</ele>
        <time>2016-10-04T13:53:43Z</time>
      </trkpt>
      <trkpt lat="48.6259" lon="-3.24963">
        <ele>71.76</ele>
        <time>2016-10-04T13:54:08Z</time>
      </trkpt>
      <trkpt lat="48.62601" lon="-3.24981">
        <ele>76.08</ele>
        <time>2016-10-04T13:54:27Z</time>
      </trkpt>
      <trkpt lat="48.62602" lon="-3.24996">
        <ele>79.93</ele>
        <time>2016-10-04T13:54:47Z</time>
      </trkpt>
      <trkpt lat="48.6259" lon="-3.24999">
        <ele>80.89</ele>
        <time>2016-10-04T13:55:06Z</time>
      </trkpt>
      <trkpt lat="48.6258" lon="-3.25005">
        <ele>78.97</ele>
        <time>2016-10-04T13:55:25Z</time>
      </trkpt>
      <trkpt lat="48.62555" lon="-3.25007">
        <ele>79.93</ele>
        <time>2016-10-04T13:55:43Z</time>
      </trkpt>
      <trkpt lat="48.62534" lon="-3.25025">
        <ele>81.85</ele>
        <time>2016-10-04T13:56:05Z</time>
      </trkpt>
      <trkpt lat="48.6252" lon="-3.25025">
        <ele>84.25</ele>
        <time>2016-10-04T13:56:26Z</time>
      </trkpt>
      <trkpt lat="48.62501" lon="-3.25033">
        <ele>90.98</ele>
        <time>2016-10-04T13:56:46Z</time>
      </trkpt>
      <trkpt lat="48.62492" lon="-3.25042">
        <ele>92.9</ele>
        <time>2016-10-04T13:57:04Z</time>
      </trkpt>
      <trkpt lat="48.62477" lon="-3.25039">
        <ele>92.9</ele>
        <time>2016-10-04T13:57:25Z</time>
      </trkpt>
      <trkpt lat="48.62457" lon="-3.25032">
        <ele>91.46</ele>
        <time>2016-10-04T13:57:45Z</time>
      </trkpt>
      <trkpt lat="48.62442" lon="-3.25036">
        <ele>86.18</ele>
        <time>2016-10-04T13:58:07Z</time>
      </trkpt>
      <trkpt lat="48.62445" lon="-3.25029">
        <ele>87.14</ele>
        <time>2016-10-04T13:58:30Z</time>
      </trkpt>
      <trkpt lat="48.62447" lon="-3.25032">
        <ele>86.66</ele>
        <time>2016-10-04T13:58:40Z</time>
      </trkpt>
      <trkpt lat="48.62435" lon="-3.25033">
        <ele>89.54</ele>
        <time>2016-10-04T13:58:59Z</time>
      </trkpt>
      <trkpt lat="48.6241" lon="-3.25027">
        <ele>90.98</ele>
        <time>2016-10-04T13:59:21Z</time>
      </trkpt>
      <trkpt lat="48.62387" lon="-3.25025">
        <ele>87.14</ele>
        <time>2016-10-04T13:59:42Z</time>
      </trkpt>
      <trkpt lat="48.62372" lon="-3.25017">
        <ele>82.81</ele>
        <time>2016-10-04T14:00:02Z</time>
      </trkpt>
      <trkpt lat="48.62374" lon="-3.25004">
        <ele>80.89</ele>
        <time>2016-10-04T14:00:20Z</time>
      </trkpt>
      <trkpt lat="48.62373" lon="-3.25001">
        <ele>81.37</ele>
        <time>2016-10-04T14:00:38Z</time>
      </trkpt>
      <trkpt lat="48.62365" lon="-3.24997">
        <ele>82.33</ele>
        <time>2016-10-04T14:00:54Z</time>
      </trkpt>
      <trkpt lat="48.62336" lon="-3.25004">
        <ele>86.18</ele>
        <time>2016-10-04T14:01:07Z</time>
      </trkpt>
      <trkpt lat="48.6231" lon="-3.25021">
        <ele>90.5</ele>
        <time>2016-10-04T14:01:25Z</time>
      </trkpt>
      <trkpt lat="48.62293" lon="-3.25034">
        <ele>94.83</ele>
        <time>2016-10-04T14:01:43Z</time>
      </trkpt>
      <trkpt lat="48.62275" lon="-3.25022">
        <ele>95.79</ele>
        <time>2016-10-04T14:02:05Z</time>
      </trkpt>
      <trkpt lat="48.62282" lon="-3.25014">
        <ele>96.27</ele>
        <time>2016-10-04T14:02:09Z</time>
      </trkpt>
      <trkpt lat="48.62293" lon="-3.24998">
        <ele>97.23</ele>
        <time>2016-10-04T14:02:16Z</time>
      </trkpt>
      <trkpt lat="48.62299" lon="-3.2498">
        <ele>100.6</ele>
        <time>2016-10-04T14:02:32Z</time>
      </trkpt>
      <trkpt lat="48.62308" lon="-3.24964">
        <ele>99.63</ele>
        <time>2016-10-04T14:02:50Z</time>
      </trkpt>
      <trkpt lat="48.6231" lon="-3.24956">
        <ele>99.63</ele>
        <time>2016-10-04T14:03:02Z</time>
      </trkpt>
      <trkpt lat="48.62308" lon="-3.24949">
        <ele>99.63</ele>
        <time>2016-10-04T14:03:22Z</time>
      </trkpt>
      <trkpt lat="48.6229" lon="-3.24921">
        <ele>95.79</ele>
        <time>2016-10-04T14:03:43Z</time>
      </trkpt>
      <trkpt lat="48.62271" lon="-3.24884">
        <ele>96.75</ele>
        <time>2016-10-04T14:04:02Z</time>
      </trkpt>
      <trkpt lat="48.62255" lon="-3.24887">
        <ele>96.27</ele>
        <time>2016-10-04T14:04:24Z</time>
      </trkpt>
      <trkpt lat="48.62217" lon="-3.24871">
        <ele>91.94</ele>
        <time>2016-10-04T14:05:00Z</time>
      </trkpt>
      <trkpt lat="48.62188" lon="-3.24864">
        <ele>91.94</ele>
        <time>2016-10-04T14:05:19Z</time>
      </trkpt>
      <trkpt lat="48.62175" lon="-3.24864">
        <ele>89.54</ele>
        <time>2016-10-04T14:05:40Z</time>
      </trkpt>
      <trkpt lat="48.6215" lon="-3.24853">
        <ele>87.62</ele>
        <time>2016-10-04T14:06:02Z</time>
      </trkpt>
      <trkpt lat="48.62142" lon="-3.24843">
        <ele>85.69</ele>
        <time>2016-10-04T14:06:19Z</time>
      </trkpt>
      <trkpt lat="48.62127" lon="-3.24843">
        <ele>85.21</ele>
        <time>2016-10-04T14:06:37Z</time>
      </trkpt>
      <trkpt lat="48.62107" lon="-3.24852">
        <ele>87.62</ele>
        <time>2016-10-04T14:06:56Z</time>
      </trkpt>
      <trkpt lat="48.62105" lon="-3.24868">
        <ele>89.06</ele>
        <time>2016-10-04T14:07:16Z</time>
      </trkpt>
      <trkpt lat="48.62093" lon="-3.24874">
        <ele>94.83</ele>
        <time>2016-10-04T14:07:37Z</time>
      </trkpt>
      <trkpt lat="48.62088" lon="-3.24874">
        <ele>95.31</ele>
        <time>2016-10-04T14:07:41Z</time>
      </trkpt>
      <trkpt lat="48.62071" lon="-3.24891">
        <ele>95.31</ele>
        <time>2016-10-04T14:08:01Z</time>
      </trkpt>
      <trkpt lat="48.62067" lon="-3.24895">
        <ele>97.71</ele>
        <time>2016-10-04T14:08:19Z</time>
      </trkpt>
      <trkpt lat="48.62065" lon="-3.24907">
        <ele>103.48</ele>
        <time>2016-10-04T14:08:38Z</time>
      </trkpt>
      <trkpt lat="48.62042" lon="-3.24923">
        <ele>104.44</ele>
        <time>2016-10-04T14:08:59Z</time>
      </trkpt>
      <trkpt lat="48.62026" lon="-3.24915">
        <ele>103</ele>
        <time>2016-10-04T14:09:19Z</time>
      </trkpt>
      <trkpt lat="48.62019" lon="-3.24916">
        <ele>102.52</ele>
        <time>2016-10-04T14:09:41Z</time>
      </trkpt>
      <trkpt lat="48.62001" lon="-3.24923">
        <ele>95.31</ele>
        <time>2016-10-04T14:10:04Z</time>
      </trkpt>
      <trkpt lat="48.61986" lon="-3.24921">
        <ele>94.35</ele>
        <time>2016-10-04T14:10:29Z</time>
      </trkpt>
      <trkpt lat="48.61966" lon="-3.24905">
        <ele>93.39</ele>
        <time>2016-10-04T14:10:47Z</time>
      </trkpt>
      <trkpt lat="48.61958" lon="-3.24883">
        <ele>92.42</ele>
        <time>2016-10-04T14:11:08Z</time>
      </trkpt>
      <trkpt lat="48.6194" lon="-3.24872">
        <ele>90.98</ele>
        <time>2016-10-04T14:11:28Z</time>
      </trkpt>
      <trkpt lat="48.61924" lon="-3.24864">
        <ele>91.46</ele>
        <time>2016-10-04T14:11:47Z</time>
      </trkpt>
      <trkpt lat="48.61913" lon="-3.24845">
        <ele>87.62</ele>
        <time>2016-10-04T14:12:07Z</time>
      </trkpt>
      <trkpt lat="48.61905" lon="-3.24845">
        <ele>85.69</ele>
        <time>2016-10-04T14:12:11Z</time>
      </trkpt>
      <trkpt lat="48.61881" lon="-3.24842">
        <ele>81.37</ele>
        <time>2016-10-04T14:12:32Z</time>
      </trkpt>
      <trkpt lat="48.61871" lon="-3.24823">
        <ele>86.66</ele>
        <time>2016-10-04T14:12:51Z</time>
      </trkpt>
      <trkpt lat="48.61854" lon="-3.24801">
        <ele>91.94</ele>
        <time>2016-10-04T14:13:11Z</time>
      </trkpt>
      <trkpt lat="48.61849" lon="-3.24796">
        <ele>93.87</ele>
        <time>2016-10-04T14:13:30Z</time>
      </trkpt>
      <trkpt lat="48.61836" lon="-3.24792">
        <ele>92.42</ele>
        <time>2016-10-04T14:13:52Z</time>
      </trkpt>
      <trkpt lat="48.61823" lon="-3.24784">
        <ele>90.98</ele>
        <time>2016-10-04T14:14:11Z</time>
      </trkpt>
      <trkpt lat="48.61811" lon="-3.24772">
        <ele>90.02</ele>
        <time>2016-10-04T14:14:34Z</time>
      </trkpt>
      <trkpt lat="48.61805" lon="-3.24748">
        <ele>88.58</ele>
        <time>2016-10-04T14:14:54Z</time>
      </trkpt>
      <trkpt lat="48.61806" lon="-3.24737">
        <ele>88.1</ele>
        <time>2016-10-04T14:15:05Z</time>
      </trkpt>
      <trkpt lat="48.61801" lon="-3.24717">
        <ele>87.14</ele>
        <time>2016-10-04T14:15:22Z</time>
      </trkpt>
      <trkpt lat="48.618" lon="-3.24701">
        <ele>86.66</ele>
        <time>2016-10-04T14:15:39Z</time>
      </trkpt>
      <trkpt lat="48.61802" lon="-3.24675">
        <ele>84.73</ele>
        <time>2016-10-04T14:15:58Z</time>
      </trkpt>
      <trkpt lat="48.61794" lon="-3.24658">
        <ele>80.89</ele>
        <time>2016-10-04T14:16:16Z</time>
      </trkpt>
      <trkpt lat="48.61786" lon="-3.24635">
        <ele>81.37</ele>
        <time>2016-10-04T14:16:38Z</time>
      </trkpt>
      <trkpt lat="48.61778" lon="-3.24615">
        <ele>77.52</ele>
        <time>2016-10-04T14:16:54Z</time>
      </trkpt>
      <trkpt lat="48.61754" lon="-3.24574">
        <ele>75.6</ele>
        <time>2016-10-04T14:17:31Z</time>
      </trkpt>
      <trkpt lat="48.61724" lon="-3.24565">
        <ele>77.52</ele>
        <time>2016-10-04T14:17:53Z</time>
      </trkpt>
      <trkpt lat="48.61715" lon="-3.24554">
        <ele>79.93</ele>
        <time>2016-10-04T14:18:03Z</time>
      </trkpt>
      <trkpt lat="48.61692" lon="-3.2455">
        <ele>82.81</ele>
        <time>2016-10-04T14:18:23Z</time>
      </trkpt>
      <trkpt lat="48.61677" lon="-3.24548">
        <ele>86.18</ele>
        <time>2016-10-04T14:18:41Z</time>
      </trkpt>
      <trkpt lat="48.61678" lon="-3.24536">
        <ele>85.69</ele>
        <time>2016-10-04T14:18:57Z</time>
      </trkpt>
      <trkpt lat="48.61678" lon="-3.24536">
        <ele>85.21</ele>
        <time>2016-10-04T14:19:23Z</time>
      </trkpt>
      <trkpt lat="48.61686" lon="-3.24515">
        <ele>84.25</ele>
        <time>2016-10-04T14:19:41Z</time>
      </trkpt>
      <trkpt lat="48.61692" lon="-3.24515">
        <ele>83.29</ele>
        <time>2016-10-04T14:20:01Z</time>
      </trkpt>
      <trkpt lat="48.61691" lon="-3.24517">
        <ele>83.29</ele>
        <time>2016-10-04T14:20:33Z</time>
      </trkpt>
      <trkpt lat="48.61674" lon="-3.24549">
        <ele>86.66</ele>
        <time>2016-10-04T14:20:57Z</time>
      </trkpt>
      <trkpt lat="48.61658" lon="-3.2456">
        <ele>87.62</ele>
        <time>2016-10-04T14:21:15Z</time>
      </trkpt>
      <trkpt lat="48.61643" lon="-3.24564">
        <ele>88.1</ele>
        <time>2016-10-04T14:21:29Z</time>
      </trkpt>
      <trkpt lat="48.61627" lon="-3.24569">
        <ele>90.02</ele>
        <time>2016-10-04T14:21:45Z</time>
      </trkpt>
      <trkpt lat="48.61609" lon="-3.24577">
        <ele>93.39</ele>
        <time>2016-10-04T14:22:04Z</time>
      </trkpt>
      <trkpt lat="48.6159" lon="-3.24579">
        <ele>97.23</ele>
        <time>2016-10-04T14:22:24Z</time>
      </trkpt>
      <trkpt lat="48.61584" lon="-3.2458">
        <ele>97.23</ele>
        <time>2016-10-04T14:22:43Z</time>
      </trkpt>
      <trkpt lat="48.61564" lon="-3.24586">
        <ele>94.83</ele>
        <time>2016-10-04T14:23:02Z</time>
      </trkpt>
      <trkpt lat="48.61542" lon="-3.24602">
        <ele>97.23</ele>
        <time>2016-10-04T14:23:21Z</time>
      </trkpt>
      <trkpt lat="48.61523" lon="-3.24611">
        <ele>97.23</ele>
        <time>2016-10-04T14:23:42Z</time>
      </trkpt>
      <trkpt lat="48.61508" lon="-3.24612">
        <ele>95.79</ele>
        <time>2016-10-04T14:24:01Z</time>
      </trkpt>
      <trkpt lat="48.61491" lon="-3.24618">
        <ele>92.42</ele>
        <time>2016-10-04T14:24:21Z</time>
      </trkpt>
      <trkpt lat="48.61489" lon="-3.24595">
        <ele>87.62</ele>
        <time>2016-10-04T14:24:42Z</time>
      </trkpt>
      <trkpt lat="48.61485" lon="-3.24558">
        <ele>86.18</ele>
        <time>2016-10-04T14:25:00Z</time>
      </trkpt>
      <trkpt lat="48.61482" lon="-3.24529">
        <ele>87.14</ele>
        <time>2016-10-04T14:25:20Z</time>
      </trkpt>
      <trkpt lat="48.61476" lon="-3.24497">
        <ele>86.66</ele>
        <time>2016-10-04T14:25:40Z</time>
      </trkpt>
      <trkpt lat="48.61472" lon="-3.24474">
        <ele>87.14</ele>
        <time>2016-10-04T14:25:58Z</time>
      </trkpt>
      <trkpt lat="48.6147" lon="-3.24468">
        <ele>88.1</ele>
        <time>2016-10-04T14:26:17Z</time>
      </trkpt>
      <trkpt lat="48.61466" lon="-3.24456">
        <ele>88.58</ele>
        <time>2016-10-04T14:26:39Z</time>
      </trkpt>
      <trkpt lat="48.61462" lon="-3.24445">
        <ele>88.58</ele>
        <time>2016-10-04T14:26:56Z</time>
      </trkpt>
      <trkpt lat="48.61454" lon="-3.2443">
        <ele>91.46</ele>
        <time>2016-10-04T14:27:16Z</time>
      </trkpt>
      <trkpt lat="48.61455" lon="-3.24422">
        <ele>92.9</ele>
        <time>2016-10-04T14:27:35Z</time>
      </trkpt>
      <trkpt lat="48.61457" lon="-3.24413">
        <ele>92.9</ele>
        <time>2016-10-04T14:27:49Z</time>
      </trkpt>
      <trkpt lat="48.6147" lon="-3.24388">
        <ele>84.73</ele>
        <time>2016-10-04T14:28:12Z</time>
      </trkpt>
      <trkpt lat="48.61491" lon="-3.24367">
        <ele>82.33</ele>
        <time>2016-10-04T14:28:31Z</time>
      </trkpt>
      <trkpt lat="48.61496" lon="-3.2435">
        <ele>82.81</ele>
        <time>2016-10-04T14:28:50Z</time>
      </trkpt>
      <trkpt lat="48.61488" lon="-3.24337">
        <ele>75.12</ele>
        <time>2016-10-04T14:29:10Z</time>
      </trkpt>
      <trkpt lat="48.61505" lon="-3.24328">
        <ele>73.68</ele>
        <time>2016-10-04T14:29:32Z</time>
      </trkpt>
      <trkpt lat="48.6152" lon="-3.24312">
        <ele>85.69</ele>
        <time>2016-10-04T14:29:47Z</time>
      </trkpt>
      <trkpt lat="48.61517" lon="-3.24302">
        <ele>86.66</ele>
        <time>2016-10-04T14:30:05Z</time>
      </trkpt>
      <trkpt lat="48.6152" lon="-3.24306">
        <ele>96.27</ele>
        <time>2016-10-04T14:30:27Z</time>
      </trkpt>
      <trkpt lat="48.6152" lon="-3.24307">
        <ele>97.23</ele>
        <time>2016-10-04T14:30:46Z</time>
      </trkpt>
      <trkpt lat="48.61519" lon="-3.24305">
        <ele>99.15</ele>
        <time>2016-10-04T14:31:06Z</time>
      </trkpt>
      <trkpt lat="48.61511" lon="-3.24305">
        <ele>101.56</ele>
        <time>2016-10-04T14:31:22Z</time>
      </trkpt>
      <trkpt lat="48.61516" lon="-3.24312">
        <ele>103</ele>
        <time>2016-10-04T14:31:38Z</time>
      </trkpt>
      <trkpt lat="48.61502" lon="-3.24305">
        <ele>103</ele>
        <time>2016-10-04T14:31:53Z</time>
      </trkpt>
      <trkpt lat="48.61489" lon="-3.24307">
        <ele>105.4</ele>
        <time>2016-10-04T14:32:08Z</time>
      </trkpt>
      <trkpt lat="48.61484" lon="-3.24305">
        <ele>106.84</ele>
        <time>2016-10-04T14:32:15Z</time>
      </trkpt>
      <trkpt lat="48.61469" lon="-3.24295">
        <ele>106.36</ele>
        <time>2016-10-04T14:32:33Z</time>
      </trkpt>
      <trkpt lat="48.61464" lon="-3.24283">
        <ele>105.88</ele>
        <time>2016-10-04T14:32:52Z</time>
      </trkpt>
      <trkpt lat="48.6145" lon="-3.24262">
        <ele>101.08</ele>
        <time>2016-10-04T14:33:13Z</time>
      </trkpt>
      <trkpt lat="48.61437" lon="-3.24249">
        <ele>99.15</ele>
        <time>2016-10-04T14:33:33Z</time>
      </trkpt>
      <trkpt lat="48.61417" lon="-3.24243">
        <ele>101.08</ele>
        <time>2016-10-04T14:33:52Z</time>
      </trkpt>
      <trkpt lat="48.61407" lon="-3.24242">
        <ele>102.52</ele>
        <time>2016-10-04T14:34:09Z</time>
      </trkpt>
      <trkpt lat="48.61396" lon="-3.24249">
        <ele>101.08</ele>
        <time>2016-10-04T14:34:25Z</time>
      </trkpt>
      <trkpt lat="48.61376" lon="-3.24243">
        <ele>99.63</ele>
        <time>2016-10-04T14:34:45Z</time>
      </trkpt>
      <trkpt lat="48.61364" lon="-3.24238">
        <ele>101.08</ele>
        <time>2016-10-04T14:35:01Z</time>
      </trkpt>
      <trkpt lat="48.61345" lon="-3.2423">
        <ele>103</ele>
        <time>2016-10-04T14:35:16Z</time>
      </trkpt>
      <trkpt lat="48.61331" lon="-3.24227">
        <ele>103.48</ele>
        <time>2016-10-04T14:35:30Z</time>
      </trkpt>
      <trkpt lat="48.61316" lon="-3.24231">
        <ele>105.4</ele>
        <time>2016-10-04T14:35:45Z</time>
      </trkpt>
      <trkpt lat="48.61301" lon="-3.24242">
        <ele>105.4</ele>
        <time>2016-10-04T14:36:02Z</time>
      </trkpt>
      <trkpt lat="48.6129" lon="-3.24242">
        <ele>104.44</ele>
        <time>2016-10-04T14:36:16Z</time>
      </trkpt>
      <trkpt lat="48.6129" lon="-3.24241">
        <ele>104.44</ele>
        <time>2016-10-04T14:36:20Z</time>
      </trkpt>
      <trkpt lat="48.61296" lon="-3.24229">
        <ele>105.4</ele>
        <time>2016-10-04T14:36:36Z</time>
      </trkpt>
      <trkpt lat="48.61299" lon="-3.24226">
        <ele>105.4</ele>
        <time>2016-10-04T14:36:54Z</time>
      </trkpt>
      <trkpt lat="48.61309" lon="-3.24207">
        <ele>105.88</ele>
        <time>2016-10-04T14:37:12Z</time>
      </trkpt>
      <trkpt lat="48.6132" lon="-3.24187">
        <ele>109.25</ele>
        <time>2016-10-04T14:37:29Z</time>
      </trkpt>
      <trkpt lat="48.61331" lon="-3.24173">
        <ele>110.21</ele>
        <time>2016-10-04T14:37:46Z</time>
      </trkpt>
      <trkpt lat="48.61341" lon="-3.24153">
        <ele>111.65</ele>
        <time>2016-10-04T14:38:01Z</time>
      </trkpt>
      <trkpt lat="48.61343" lon="-3.24146">
        <ele>112.61</ele>
        <time>2016-10-04T14:38:08Z</time>
      </trkpt>
      <trkpt lat="48.61349" lon="-3.24129">
        <ele>113.57</ele>
        <time>2016-10-04T14:38:24Z</time>
      </trkpt>
      <trkpt lat="48.61352" lon="-3.24123">
        <ele>113.57</ele>
        <time>2016-10-04T14:38:39Z</time>
      </trkpt>
      <trkpt lat="48.61354" lon="-3.24114">
        <ele>113.09</ele>
        <time>2016-10-04T14:38:45Z</time>
      </trkpt>
      <trkpt lat="48.61357" lon="-3.24094">
        <ele>112.61</ele>
        <time>2016-10-04T14:38:57Z</time>
      </trkpt>
      <trkpt lat="48.61359" lon="-3.24085">
        <ele>112.61</ele>
        <time>2016-10-04T14:39:02Z</time>
      </trkpt>
      <trkpt lat="48.61364" lon="-3.24071">
        <ele>113.09</ele>
        <time>2016-10-04T14:39:16Z</time>
      </trkpt>
      <trkpt lat="48.61368" lon="-3.24054">
        <ele>113.57</ele>
        <time>2016-10-04T14:39:27Z</time>
      </trkpt>
      <trkpt lat="48.61369" lon="-3.24048">
        <ele>113.57</ele>
        <time>2016-10-04T14:39:31Z</time>
      </trkpt>
      <trkpt lat="48.61371" lon="-3.2404">
        <ele>113.57</ele>
        <time>2016-10-04T14:39:35Z</time>
      </trkpt>
      <trkpt lat="48.61373" lon="-3.24032">
        <ele>113.09</ele>
        <time>2016-10-04T14:39:42Z</time>
      </trkpt>
      <trkpt lat="48.61376" lon="-3.24021">
        <ele>113.57</ele>
        <time>2016-10-04T14:39:51Z</time>
      </trkpt>
      <trkpt lat="48.61376" lon="-3.24018">
        <ele>113.57</ele>
        <time>2016-10-04T14:39:53Z</time>
      </trkpt>
      <trkpt lat="48.61383" lon="-3.23995">
        <ele>113.57</ele>
        <time>2016-10-04T14:40:08Z</time>
      </trkpt>
      <trkpt lat="48.61384" lon="-3.2399">
        <ele>114.05</ele>
        <time>2016-10-04T14:40:11Z</time>
      </trkpt>
      <trkpt lat="48.6139" lon="-3.23974">
        <ele>114.53</ele>
        <time>2016-10-04T14:40:24Z</time>
      </trkpt>
      <trkpt lat="48.61393" lon="-3.23957">
        <ele>115.01</ele>
        <time>2016-10-04T14:40:36Z</time>
      </trkpt>
      <trkpt lat="48.61394" lon="-3.23953">
        <ele>115.01</ele>
        <time>2016-10-04T14:40:38Z</time>
      </trkpt>
      <trkpt lat="48.61397" lon="-3.23939">
        <ele>115.01</ele>
        <time>2016-10-04T14:40:52Z</time>
      </trkpt>
      <trkpt lat="48.614" lon="-3.23923">
        <ele>115.01</ele>
        <time>2016-10-04T14:41:04Z</time>
      </trkpt>
      <trkpt lat="48.61406" lon="-3.23902">
        <ele>115.01</ele>
        <time>2016-10-04T14:41:18Z</time>
      </trkpt>
      <trkpt lat="48.61408" lon="-3.23896">
        <ele>114.53</ele>
        <time>2016-10-04T14:41:21Z</time>
      </trkpt>
      <trkpt lat="48.61411" lon="-3.23886">
        <ele>114.05</ele>
        <time>2016-10-04T14:41:26Z</time>
      </trkpt>
      <trkpt lat="48.61415" lon="-3.23873">
        <ele>114.05</ele>
        <time>2016-10-04T14:41:38Z</time>
      </trkpt>
      <trkpt lat="48.61421" lon="-3.23856">
        <ele>114.53</ele>
        <time>2016-10-04T14:41:51Z</time>
      </trkpt>
      <trkpt lat="48.61425" lon="-3.2385">
        <ele>114.05</ele>
        <time>2016-10-04T14:41:57Z</time>
      </trkpt>
      <trkpt lat="48.61436" lon="-3.23835">
        <ele>113.57</ele>
        <time>2016-10-04T14:42:12Z</time>
      </trkpt>
      <trkpt lat="48.61438" lon="-3.23833">
        <ele>113.57</ele>
        <time>2016-10-04T14:42:14Z</time>
      </trkpt>
      <trkpt lat="48.61441" lon="-3.23832">
        <ele>113.57</ele>
        <time>2016-10-04T14:42:17Z</time>
      </trkpt>
      <trkpt lat="48.61451" lon="-3.23825">
        <ele>112.61</ele>
        <time>2016-10-04T14:42:28Z</time>
      </trkpt>
      <trkpt lat="48.61455" lon="-3.23823">
        <ele>112.61</ele>
        <time>2016-10-04T14:42:33Z</time>
      </trkpt>
      <trkpt lat="48.61467" lon="-3.23821">
        <ele>110.69</ele>
        <time>2016-10-04T14:42:47Z</time>
      </trkpt>
      <trkpt lat="48.61481" lon="-3.23818">
        <ele>109.73</ele>
        <time>2016-10-04T14:43:01Z</time>
      </trkpt>
      <trkpt lat="48.61501" lon="-3.23816">
        <ele>113.09</ele>
        <time>2016-10-04T14:43:18Z</time>
      </trkpt>
      <trkpt lat="48.61508" lon="-3.23817">
        <ele>113.57</ele>
        <time>2016-10-04T14:43:31Z</time>
      </trkpt>
      <trkpt lat="48.61521" lon="-3.23818">
        <ele>114.05</ele>
        <time>2016-10-04T14:43:44Z</time>
      </trkpt>
      <trkpt lat="48.61539" lon="-3.23818">
        <ele>115.98</ele>
        <time>2016-10-04T14:44:02Z</time>
      </trkpt>
      <trkpt lat="48.61545" lon="-3.23816">
        <ele>115.5</ele>
        <time>2016-10-04T14:44:07Z</time>
      </trkpt>
      <trkpt lat="48.61552" lon="-3.23804">
        <ele>115.01</ele>
        <time>2016-10-04T14:44:19Z</time>
      </trkpt>
      <trkpt lat="48.61555" lon="-3.2378">
        <ele>115.01</ele>
        <time>2016-10-04T14:44:34Z</time>
      </trkpt>
      <trkpt lat="48.61558" lon="-3.23767">
        <ele>115.01</ele>
        <time>2016-10-04T14:44:43Z</time>
      </trkpt>
      <trkpt lat="48.61559" lon="-3.23753">
        <ele>115.98</ele>
        <time>2016-10-04T14:44:52Z</time>
      </trkpt>
      <trkpt lat="48.61563" lon="-3.23735">
        <ele>115.5</ele>
        <time>2016-10-04T14:45:06Z</time>
      </trkpt>
      <trkpt lat="48.61556" lon="-3.23729">
        <ele>112.13</ele>
        <time>2016-10-04T14:45:18Z</time>
      </trkpt>
      <trkpt lat="48.61549" lon="-3.23727">
        <ele>112.61</ele>
        <time>2016-10-04T14:45:31Z</time>
      </trkpt>
      <trkpt lat="48.61548" lon="-3.23728">
        <ele>113.09</ele>
        <time>2016-10-04T14:45:35Z</time>
      </trkpt>
      <trkpt lat="48.61541" lon="-3.23723">
        <ele>112.61</ele>
        <time>2016-10-04T14:45:41Z</time>
      </trkpt>
      <trkpt lat="48.61538" lon="-3.2372">
        <ele>113.09</ele>
        <time>2016-10-04T14:45:44Z</time>
      </trkpt>
      <trkpt lat="48.61526" lon="-3.23709">
        <ele>114.05</ele>
        <time>2016-10-04T14:45:59Z</time>
      </trkpt>
      <trkpt lat="48.61515" lon="-3.23706">
        <ele>114.05</ele>
        <time>2016-10-04T14:46:10Z</time>
      </trkpt>
      <trkpt lat="48.61512" lon="-3.23691">
        <ele>112.61</ele>
        <time>2016-10-04T14:46:23Z</time>
      </trkpt>
      <trkpt lat="48.6151" lon="-3.23684">
        <ele>112.13</ele>
        <time>2016-10-04T14:46:29Z</time>
      </trkpt>
      <trkpt lat="48.61509" lon="-3.23657">
        <ele>110.21</ele>
        <time>2016-10-04T14:46:46Z</time>
      </trkpt>
      <trkpt lat="48.61508" lon="-3.23632">
        <ele>111.65</ele>
        <time>2016-10-04T14:47:03Z</time>
      </trkpt>
      <trkpt lat="48.61507" lon="-3.23614">
        <ele>112.61</ele>
        <time>2016-10-04T14:47:21Z</time>
      </trkpt>
      <trkpt lat="48.61507" lon="-3.23614">
        <ele>112.13</ele>
        <time>2016-10-04T14:47:46Z</time>
      </trkpt>
      <trkpt lat="48.61507" lon="-3.23613">
        <ele>112.13</ele>
        <time>2016-10-04T14:48:10Z</time>
      </trkpt>
      <trkpt lat="48.61506" lon="-3.23612">
        <ele>112.61</ele>
        <time>2016-10-04T14:48:35Z</time>
      </trkpt>
      <trkpt lat="48.61506" lon="-3.23614">
        <ele>113.09</ele>
        <time>2016-10-04T14:48:51Z</time>
      </trkpt>
      <trkpt lat="48.6149" lon="-3.2361">
        <ele>113.09</ele>
        <time>2016-10-04T14:49:06Z</time>
      </trkpt>
      <trkpt lat="48.61479" lon="-3.23607">
        <ele>115.01</ele>
        <time>2016-10-04T14:49:17Z</time>
      </trkpt>
      <trkpt lat="48.61465" lon="-3.23599">
        <ele>116.94</ele>
        <time>2016-10-04T14:49:33Z</time>
      </trkpt>
      <trkpt lat="48.61459" lon="-3.23595">
        <ele>117.42</ele>
        <time>2016-10-04T14:49:47Z</time>
      </trkpt>
      <trkpt lat="48.6145" lon="-3.23594">
        <ele>117.42</ele>
        <time>2016-10-04T14:50:00Z</time>
      </trkpt>
      <trkpt lat="48.61439" lon="-3.23587">
        <ele>116.94</ele>
        <time>2016-10-04T14:50:11Z</time>
      </trkpt>
      <trkpt lat="48.61436" lon="-3.23586">
        <ele>116.94</ele>
        <time>2016-10-04T14:50:14Z</time>
      </trkpt>
      <trkpt lat="48.61424" lon="-3.23579">
        <ele>114.05</ele>
        <time>2016-10-04T14:50:27Z</time>
      </trkpt>
      <trkpt lat="48.61416" lon="-3.23572">
        <ele>113.09</ele>
        <time>2016-10-04T14:50:36Z</time>
      </trkpt>
      <trkpt lat="48.61408" lon="-3.23569">
        <ele>111.17</ele>
        <time>2016-10-04T14:50:43Z</time>
      </trkpt>
      <trkpt lat="48.61393" lon="-3.2356">
        <ele>110.21</ele>
        <time>2016-10-04T14:50:56Z</time>
      </trkpt>
      <trkpt lat="48.61385" lon="-3.23556">
        <ele>109.73</ele>
        <time>2016-10-04T14:51:07Z</time>
      </trkpt>
      <trkpt lat="48.61382" lon="-3.23555">
        <ele>109.73</ele>
        <time>2016-10-04T14:51:09Z</time>
      </trkpt>
      <trkpt lat="48.61376" lon="-3.23553">
        <ele>109.25</ele>
        <time>2016-10-04T14:51:14Z</time>
      </trkpt>
      <trkpt lat="48.61365" lon="-3.23545">
        <ele>108.77</ele>
        <time>2016-10-04T14:51:25Z</time>
      </trkpt>
      <trkpt lat="48.61351" lon="-3.2354">
        <ele>109.25</ele>
        <time>2016-10-04T14:51:40Z</time>
      </trkpt>
      <trkpt lat="48.6134" lon="-3.23535">
        <ele>109.73</ele>
        <time>2016-10-04T14:51:52Z</time>
      </trkpt>
      <trkpt lat="48.61327" lon="-3.2353">
        <ele>109.73</ele>
        <time>2016-10-04T14:52:04Z</time>
      </trkpt>
      <trkpt lat="48.61326" lon="-3.23529">
        <ele>109.73</ele>
        <time>2016-10-04T14:52:06Z</time>
      </trkpt>
      <trkpt lat="48.61316" lon="-3.2352">
        <ele>109.73</ele>
        <time>2016-10-04T14:52:18Z</time>
      </trkpt>
      <trkpt lat="48.61306" lon="-3.23516">
        <ele>109.25</ele>
        <time>2016-10-04T14:52:29Z</time>
      </trkpt>
      <trkpt lat="48.61299" lon="-3.23513">
        <ele>108.77</ele>
        <time>2016-10-04T14:52:35Z</time>
      </trkpt>
      <trkpt lat="48.6129" lon="-3.23507">
        <ele>108.77</ele>
        <time>2016-10-04T14:52:46Z</time>
      </trkpt>
      <trkpt lat="48.61279" lon="-3.23502">
        <ele>107.32</ele>
        <time>2016-10-04T14:52:57Z</time>
      </trkpt>
      <trkpt lat="48.61267" lon="-3.23493">
        <ele>105.4</ele>
        <time>2016-10-04T14:53:08Z</time>
      </trkpt>
      <trkpt lat="48.61257" lon="-3.23485">
        <ele>106.36</ele>
        <time>2016-10-04T14:53:22Z</time>
      </trkpt>
      <trkpt lat="48.61247" lon="-3.23473">
        <ele>106.36</ele>
        <time>2016-10-04T14:53:33Z</time>
      </trkpt>
      <trkpt lat="48.61246" lon="-3.23454">
        <ele>105.4</ele>
        <time>2016-10-04T14:53:47Z</time>
      </trkpt>
      <trkpt lat="48.61247" lon="-3.23455">
        <ele>104.92</ele>
        <time>2016-10-04T14:54:05Z</time>
      </trkpt>
      <trkpt lat="48.61266" lon="-3.23454">
        <ele>103.96</ele>
        <time>2016-10-04T14:54:23Z</time>
      </trkpt>
      <trkpt lat="48.61284" lon="-3.23446">
        <ele>104.92</ele>
        <time>2016-10-04T14:54:40Z</time>
      </trkpt>
      <trkpt lat="48.61289" lon="-3.23446">
        <ele>105.4</ele>
        <time>2016-10-04T14:54:45Z</time>
      </trkpt>
      <trkpt lat="48.61306" lon="-3.23441">
        <ele>106.84</ele>
        <time>2016-10-04T14:55:02Z</time>
      </trkpt>
      <trkpt lat="48.61327" lon="-3.2344">
        <ele>106.84</ele>
        <time>2016-10-04T14:55:20Z</time>
      </trkpt>
      <trkpt lat="48.61348" lon="-3.23437">
        <ele>108.77</ele>
        <time>2016-10-04T14:55:42Z</time>
      </trkpt>
      <trkpt lat="48.61364" lon="-3.23435">
        <ele>111.17</ele>
        <time>2016-10-04T14:55:58Z</time>
      </trkpt>
      <trkpt lat="48.61369" lon="-3.23435">
        <ele>111.65</ele>
        <time>2016-10-04T14:56:03Z</time>
      </trkpt>
      <trkpt lat="48.61387" lon="-3.23431">
        <ele>112.13</ele>
        <time>2016-10-04T14:56:22Z</time>
      </trkpt>
      <trkpt lat="48.61404" lon="-3.23428">
        <ele>112.61</ele>
        <time>2016-10-04T14:56:40Z</time>
      </trkpt>
      <trkpt lat="48.61408" lon="-3.23426">
        <ele>112.61</ele>
        <time>2016-10-04T14:56:44Z</time>
      </trkpt>
      <trkpt lat="48.61428" lon="-3.23422">
        <ele>113.57</ele>
        <time>2016-10-04T14:57:03Z</time>
      </trkpt>
      <trkpt lat="48.61444" lon="-3.23415">
        <ele>113.09</ele>
        <time>2016-10-04T14:57:22Z</time>
      </trkpt>
      <trkpt lat="48.61461" lon="-3.23415">
        <ele>111.17</ele>
        <time>2016-10-04T14:57:38Z</time>
      </trkpt>
      <trkpt lat="48.61473" lon="-3.23406">
        <ele>111.17</ele>
        <time>2016-10-04T14:57:58Z</time>
      </trkpt>
      <trkpt lat="48.61474" lon="-3.23402">
        <ele>110.69</ele>
        <time>2016-10-04T14:58:26Z</time>
      </trkpt>
      <trkpt lat="48.61475" lon="-3.23394">
        <ele>110.69</ele>
        <time>2016-10-04T14:58:42Z</time>
      </trkpt>
      <trkpt lat="48.61479" lon="-3.23364">
        <ele>112.13</ele>
        <time>2016-10-04T14:59:01Z</time>
      </trkpt>
      <trkpt lat="48.6148" lon="-3.23343">
        <ele>113.09</ele>
        <time>2016-10-04T14:59:17Z</time>
      </trkpt>
      <trkpt lat="48.61481" lon="-3.23322">
        <ele>110.69</ele>
        <time>2016-10-04T14:59:33Z</time>
      </trkpt>
      <trkpt lat="48.61476" lon="-3.2329">
        <ele>109.73</ele>
        <time>2016-10-04T14:59:53Z</time>
      </trkpt>
      <trkpt lat="48.61474" lon="-3.23281">
        <ele>109.73</ele>
        <time>2016-10-04T14:59:59Z</time>
      </trkpt>
      <trkpt lat="48.6147" lon="-3.23263">
        <ele>109.25</ele>
        <time>2016-10-04T15:00:15Z</time>
      </trkpt>
      <trkpt lat="48.61465" lon="-3.23246">
        <ele>108.77</ele>
        <time>2016-10-04T15:00:27Z</time>
      </trkpt>
      <trkpt lat="48.61456" lon="-3.23229">
        <ele>108.77</ele>
        <time>2016-10-04T15:00:41Z</time>
      </trkpt>
      <trkpt lat="48.61456" lon="-3.23223">
        <ele>108.77</ele>
        <time>2016-10-04T15:00:44Z</time>
      </trkpt>
      <trkpt lat="48.61452" lon="-3.23198">
        <ele>108.29</ele>
        <time>2016-10-04T15:00:58Z</time>
      </trkpt>
      <trkpt lat="48.6145" lon="-3.23176">
        <ele>105.4</ele>
        <time>2016-10-04T15:01:13Z</time>
      </trkpt>
      <trkpt lat="48.61447" lon="-3.23159">
        <ele>102.52</ele>
        <time>2016-10-04T15:01:28Z</time>
      </trkpt>
      <trkpt lat="48.61442" lon="-3.23152">
        <ele>102.52</ele>
        <time>2016-10-04T15:01:48Z</time>
      </trkpt>
      <trkpt lat="48.61447" lon="-3.2313">
        <ele>98.67</ele>
        <time>2016-10-04T15:02:04Z</time>
      </trkpt>
      <trkpt lat="48.61455" lon="-3.23118">
        <ele>96.75</ele>
        <time>2016-10-04T15:02:23Z</time>
      </trkpt>
      <trkpt lat="48.6147" lon="-3.23102">
        <ele>94.83</ele>
        <time>2016-10-04T15:02:43Z</time>
      </trkpt>
      <trkpt lat="48.61483" lon="-3.23085">
        <ele>90.98</ele>
        <time>2016-10-04T15:03:01Z</time>
      </trkpt>
      <trkpt lat="48.61494" lon="-3.23067">
        <ele>88.1</ele>
        <time>2016-10-04T15:03:20Z</time>
      </trkpt>
      <trkpt lat="48.61498" lon="-3.23052">
        <ele>86.66</ele>
        <time>2016-10-04T15:03:40Z</time>
      </trkpt>
      <trkpt lat="48.61496" lon="-3.23047">
        <ele>85.69</ele>
        <time>2016-10-04T15:03:58Z</time>
      </trkpt>
      <trkpt lat="48.61501" lon="-3.23045">
        <ele>90.5</ele>
        <time>2016-10-04T15:04:16Z</time>
      </trkpt>
      <trkpt lat="48.615" lon="-3.23024">
        <ele>96.27</ele>
        <time>2016-10-04T15:04:33Z</time>
      </trkpt>
      <trkpt lat="48.61506" lon="-3.23007">
        <ele>97.23</ele>
        <time>2016-10-04T15:04:50Z</time>
      </trkpt>
      <trkpt lat="48.61514" lon="-3.22983">
        <ele>100.11</ele>
        <time>2016-10-04T15:05:12Z</time>
      </trkpt>
      <trkpt lat="48.61527" lon="-3.2298">
        <ele>98.67</ele>
        <time>2016-10-04T15:05:31Z</time>
      </trkpt>
      <trkpt lat="48.61535" lon="-3.22952">
        <ele>97.23</ele>
        <time>2016-10-04T15:05:53Z</time>
      </trkpt>
      <trkpt lat="48.61541" lon="-3.22922">
        <ele>99.63</ele>
        <time>2016-10-04T15:06:13Z</time>
      </trkpt>
      <trkpt lat="48.61547" lon="-3.22899">
        <ele>102.04</ele>
        <time>2016-10-04T15:06:32Z</time>
      </trkpt>
      <trkpt lat="48.61552" lon="-3.22885">
        <ele>103</ele>
        <time>2016-10-04T15:06:53Z</time>
      </trkpt>
      <trkpt lat="48.6157" lon="-3.22855">
        <ele>101.08</ele>
        <time>2016-10-04T15:07:15Z</time>
      </trkpt>
      <trkpt lat="48.61585" lon="-3.22843">
        <ele>99.63</ele>
        <time>2016-10-04T15:07:34Z</time>
      </trkpt>
      <trkpt lat="48.616" lon="-3.22839">
        <ele>100.11</ele>
        <time>2016-10-04T15:07:56Z</time>
      </trkpt>
      <trkpt lat="48.61618" lon="-3.22827">
        <ele>100.6</ele>
        <time>2016-10-04T15:08:14Z</time>
      </trkpt>
      <trkpt lat="48.6163" lon="-3.2282">
        <ele>101.56</ele>
        <time>2016-10-04T15:08:34Z</time>
      </trkpt>
      <trkpt lat="48.61654" lon="-3.2281">
        <ele>101.08</ele>
        <time>2016-10-04T15:08:54Z</time>
      </trkpt>
      <trkpt lat="48.61671" lon="-3.228">
        <ele>97.23</ele>
        <time>2016-10-04T15:09:16Z</time>
      </trkpt>
      <trkpt lat="48.61678" lon="-3.22799">
        <ele>97.71</ele>
        <time>2016-10-04T15:09:37Z</time>
      </trkpt>
      <trkpt lat="48.61689" lon="-3.22794">
        <ele>96.27</ele>
        <time>2016-10-04T15:09:59Z</time>
      </trkpt>
      <trkpt lat="48.61705" lon="-3.22784">
        <ele>91.46</ele>
        <time>2016-10-04T15:10:17Z</time>
      </trkpt>
      <trkpt lat="48.61736" lon="-3.22758">
        <ele>93.87</ele>
        <time>2016-10-04T15:10:38Z</time>
      </trkpt>
      <trkpt lat="48.61744" lon="-3.22746">
        <ele>97.23</ele>
        <time>2016-10-04T15:10:56Z</time>
      </trkpt>
      <trkpt lat="48.61751" lon="-3.2274">
        <ele>97.71</ele>
        <time>2016-10-04T15:11:09Z</time>
      </trkpt>
      <trkpt lat="48.61758" lon="-3.2273">
        <ele>96.75</ele>
        <time>2016-10-04T15:11:22Z</time>
      </trkpt>
      <trkpt lat="48.61777" lon="-3.22706">
        <ele>95.31</ele>
        <time>2016-10-04T15:11:42Z</time>
      </trkpt>
      <trkpt lat="48.61802" lon="-3.22696">
        <ele>94.83</ele>
        <time>2016-10-04T15:12:02Z</time>
      </trkpt>
      <trkpt lat="48.61814" lon="-3.22691">
        <ele>94.35</ele>
        <time>2016-10-04T15:12:23Z</time>
      </trkpt>
      <trkpt lat="48.6182" lon="-3.22674">
        <ele>93.39</ele>
        <time>2016-10-04T15:12:41Z</time>
      </trkpt>
      <trkpt lat="48.61814" lon="-3.22642">
        <ele>91.46</ele>
        <time>2016-10-04T15:13:01Z</time>
      </trkpt>
      <trkpt lat="48.61823" lon="-3.22633">
        <ele>93.87</ele>
        <time>2016-10-04T15:13:19Z</time>
      </trkpt>
      <trkpt lat="48.61839" lon="-3.22634">
        <ele>91.46</ele>
        <time>2016-10-04T15:13:36Z</time>
      </trkpt>
      <trkpt lat="48.6185" lon="-3.22635">
        <ele>90.98</ele>
        <time>2016-10-04T15:13:47Z</time>
      </trkpt>
      <trkpt lat="48.61854" lon="-3.22631">
        <ele>92.9</ele>
        <time>2016-10-04T15:14:02Z</time>
      </trkpt>
      <trkpt lat="48.61854" lon="-3.22632">
        <ele>90.98</ele>
        <time>2016-10-04T15:14:26Z</time>
      </trkpt>
      <trkpt lat="48.61854" lon="-3.22632">
        <ele>91.94</ele>
        <time>2016-10-04T15:14:46Z</time>
      </trkpt>
      <trkpt lat="48.61855" lon="-3.22633">
        <ele>92.42</ele>
        <time>2016-10-04T15:15:14Z</time>
      </trkpt>
      <trkpt lat="48.61856" lon="-3.22638">
        <ele>91.94</ele>
        <time>2016-10-04T15:15:21Z</time>
      </trkpt>
      <trkpt lat="48.61864" lon="-3.22654">
        <ele>92.42</ele>
        <time>2016-10-04T15:15:32Z</time>
      </trkpt>
      <trkpt lat="48.61876" lon="-3.22685">
        <ele>95.79</ele>
        <time>2016-10-04T15:15:50Z</time>
      </trkpt>
      <trkpt lat="48.61879" lon="-3.22707">
        <ele>96.75</ele>
        <time>2016-10-04T15:16:07Z</time>
      </trkpt>
      <trkpt lat="48.61889" lon="-3.22729">
        <ele>99.15</ele>
        <time>2016-10-04T15:16:23Z</time>
      </trkpt>
      <trkpt lat="48.6189" lon="-3.22746">
        <ele>99.15</ele>
        <time>2016-10-04T15:16:37Z</time>
      </trkpt>
      <trkpt lat="48.6189" lon="-3.22746">
        <ele>99.15</ele>
        <time>2016-10-04T15:16:41Z</time>
      </trkpt>
      <trkpt lat="48.6189" lon="-3.22752">
        <ele>99.63</ele>
        <time>2016-10-04T15:16:44Z</time>
      </trkpt>
      <trkpt lat="48.61901" lon="-3.22773">
        <ele>100.6</ele>
        <time>2016-10-04T15:17:02Z</time>
      </trkpt>
      <trkpt lat="48.6191" lon="-3.22792">
        <ele>99.63</ele>
        <time>2016-10-04T15:17:16Z</time>
      </trkpt>
      <trkpt lat="48.6192" lon="-3.22816">
        <ele>98.67</ele>
        <time>2016-10-04T15:17:32Z</time>
      </trkpt>
      <trkpt lat="48.6193" lon="-3.22837">
        <ele>98.19</ele>
        <time>2016-10-04T15:17:49Z</time>
      </trkpt>
      <trkpt lat="48.61939" lon="-3.2285">
        <ele>98.67</ele>
        <time>2016-10-04T15:18:03Z</time>
      </trkpt>
      <trkpt lat="48.61945" lon="-3.22872">
        <ele>98.67</ele>
        <time>2016-10-04T15:18:18Z</time>
      </trkpt>
      <trkpt lat="48.61953" lon="-3.22885">
        <ele>98.19</ele>
        <time>2016-10-04T15:18:29Z</time>
      </trkpt>
      <trkpt lat="48.61962" lon="-3.22904">
        <ele>98.19</ele>
        <time>2016-10-04T15:18:45Z</time>
      </trkpt>
      <trkpt lat="48.61968" lon="-3.2292">
        <ele>97.71</ele>
        <time>2016-10-04T15:18:58Z</time>
      </trkpt>
      <trkpt lat="48.61974" lon="-3.22938">
        <ele>99.63</ele>
        <time>2016-10-04T15:19:11Z</time>
      </trkpt>
      <trkpt lat="48.61982" lon="-3.22956">
        <ele>101.56</ele>
        <time>2016-10-04T15:19:27Z</time>
      </trkpt>
      <trkpt lat="48.61989" lon="-3.22977">
        <ele>102.52</ele>
        <time>2016-10-04T15:19:43Z</time>
      </trkpt>
      <trkpt lat="48.61994" lon="-3.23">
        <ele>103.48</ele>
        <time>2016-10-04T15:19:58Z</time>
      </trkpt>
      <trkpt lat="48.61996" lon="-3.23015">
        <ele>104.92</ele>
        <time>2016-10-04T15:20:11Z</time>
      </trkpt>
      <trkpt lat="48.62" lon="-3.23031">
        <ele>105.88</ele>
        <time>2016-10-04T15:20:27Z</time>
      </trkpt>
      <trkpt lat="48.62004" lon="-3.23053">
        <ele>106.84</ele>
        <time>2016-10-04T15:20:43Z</time>
      </trkpt>
      <trkpt lat="48.62006" lon="-3.23076">
        <ele>107.81</ele>
        <time>2016-10-04T15:20:58Z</time>
      </trkpt>
      <trkpt lat="48.62005" lon="-3.23105">
        <ele>109.25</ele>
        <time>2016-10-04T15:21:17Z</time>
      </trkpt>
      <trkpt lat="48.62004" lon="-3.23132">
        <ele>108.77</ele>
        <time>2016-10-04T15:21:34Z</time>
      </trkpt>
      <trkpt lat="48.62004" lon="-3.23152">
        <ele>108.77</ele>
        <time>2016-10-04T15:21:50Z</time>
      </trkpt>
      <trkpt lat="48.62003" lon="-3.23172">
        <ele>111.65</ele>
        <time>2016-10-04T15:22:05Z</time>
      </trkpt>
      <trkpt lat="48.62002" lon="-3.23205">
        <ele>116.94</ele>
        <time>2016-10-04T15:22:26Z</time>
      </trkpt>
      <trkpt lat="48.62001" lon="-3.23223">
        <ele>119.34</ele>
        <time>2016-10-04T15:22:40Z</time>
      </trkpt>
      <trkpt lat="48.62001" lon="-3.23245">
        <ele>118.38</ele>
        <time>2016-10-04T15:22:55Z</time>
      </trkpt>
      <trkpt lat="48.62002" lon="-3.23266">
        <ele>118.86</ele>
        <time>2016-10-04T15:23:11Z</time>
      </trkpt>
      <trkpt lat="48.62001" lon="-3.23291">
        <ele>118.38</ele>
        <time>2016-10-04T15:23:25Z</time>
      </trkpt>
      <trkpt lat="48.62001" lon="-3.233">
        <ele>118.86</ele>
        <time>2016-10-04T15:23:31Z</time>
      </trkpt>
      <trkpt lat="48.62009" lon="-3.23314">
        <ele>116.46</ele>
        <time>2016-10-04T15:23:45Z</time>
      </trkpt>
      <trkpt lat="48.62012" lon="-3.23323">
        <ele>114.53</ele>
        <time>2016-10-04T15:24:08Z</time>
      </trkpt>
      <trkpt lat="48.62014" lon="-3.23338">
        <ele>114.53</ele>
        <time>2016-10-04T15:24:23Z</time>
      </trkpt>
      <trkpt lat="48.62014" lon="-3.23344">
        <ele>115.01</ele>
        <time>2016-10-04T15:24:26Z</time>
      </trkpt>
      <trkpt lat="48.62021" lon="-3.23362">
        <ele>115.01</ele>
        <time>2016-10-04T15:24:41Z</time>
      </trkpt>
      <trkpt lat="48.62023" lon="-3.23365">
        <ele>115.01</ele>
        <time>2016-10-04T15:24:43Z</time>
      </trkpt>
      <trkpt lat="48.62027" lon="-3.23375">
        <ele>116.46</ele>
        <time>2016-10-04T15:24:57Z</time>
      </trkpt>
      <trkpt lat="48.62027" lon="-3.23372">
        <ele>116.46</ele>
        <time>2016-10-04T15:25:14Z</time>
      </trkpt>
      <trkpt lat="48.62027" lon="-3.23372">
        <ele>116.46</ele>
        <time>2016-10-04T15:25:36Z</time>
      </trkpt>
      <trkpt lat="48.62027" lon="-3.23372">
        <ele>116.46</ele>
        <time>2016-10-04T15:25:55Z</time>
      </trkpt>
      <trkpt lat="48.62028" lon="-3.23375">
        <ele>119.34</ele>
        <time>2016-10-04T15:26:23Z</time>
      </trkpt>
      <trkpt lat="48.62029" lon="-3.23374">
        <ele>119.82</ele>
        <time>2016-10-04T15:26:56Z</time>
      </trkpt>
      <trkpt lat="48.62029" lon="-3.23375">
        <ele>118.38</ele>
        <time>2016-10-04T15:27:19Z</time>
      </trkpt>
      <trkpt lat="48.62029" lon="-3.23375">
        <ele>117.9</ele>
        <time>2016-10-04T15:27:37Z</time>
      </trkpt>
      <trkpt lat="48.62029" lon="-3.23375">
        <ele>117.42</ele>
        <time>2016-10-04T15:28:08Z</time>
      </trkpt>
    </trkseg>
  </trk>
</gpx>